Time;durP1;ratioP1;P1;durP2;ratioP2;P2;SDS_P1;SDS_P2;PMS_P1;PMS_P2;Temp;Humidity;BMP_temperature;BMP_pressure;BME280_temperature;BME280_humidity;BME280_pressure;Samples;Min_cycle;Max_cycle;Signal;HPM_P1;HPM_P2
2023/12/27 00:00:43;;;;;;;;;;;;;;;2.15;94.93;95646.34;5115200;28;985;-60
2023/12/27 00:03:09;;;;;;;;;;;;;;;2.19;94.18;95645.19;5115024;28;1300;-60
2023/12/27 00:05:34;;;;;;;;;;;;;;;2.21;93.93;95648.59;5115023;28;1023;-59
2023/12/27 00:08:00;;;;;;;;;;;;;;;2.21;93.31;95656.50;5114914;28;1042;-60
2023/12/27 00:10:28;;;;;;;;;;;;;;;2.09;93.12;95658.13;5114577;28;1203;-59
2023/12/27 00:12:54;;;;;;;;;;;;;;;1.93;92.89;95662.66;5114620;28;1040;-60
2023/12/27 00:15:20;;;;;;;;;;;;;;;1.89;94.84;95663.81;5114250;28;1910;-60
2023/12/27 00:17:46;;;;;;;;;;;;;;;1.96;94.90;95665.13;5114578;28;1027;-60
2023/12/27 00:20:12;;;;;;;;;;;;;;;2.07;94.19;95662.66;5114344;28;1036;-60
2023/12/27 00:22:38;;;;;;;;;;;;;;;2.09;93.72;95665.19;5114772;28;984;-59
2023/12/27 00:25:04;;;;;;;;;;;;;;;2.07;93.65;95656.53;5114653;28;1072;-59
2023/12/27 00:27:30;;;;;;;;;;;;;;;1.91;93.79;95654.00;5114606;28;1227;-60
2023/12/27 00:29:56;;;;;;;;;;;;;;;1.81;94.31;95648.47;5114298;28;1088;-59
2023/12/27 00:32:22;;;;;;;;;;;;;;;1.89;94.21;95651.47;5114249;28;1024;-60
2023/12/27 00:34:49;;;;;;;;;;;;;;;1.82;93.83;95654.56;5114149;28;1991;-60
2023/12/27 00:37:15;;;;;;;;;;;;;;;1.77;94.19;95660.16;5114406;28;986;-60
2023/12/27 00:39:42;;;;;;;;;;;;;;;1.69;93.80;95671.16;5114183;28;1040;-59
2023/12/27 00:42:08;;;;;;;;;;;;;;;1.78;94.21;95682.06;5114258;28;980;-59
2023/12/27 00:44:34;;;;;;;;;;;;;;;1.74;94.67;95676.97;5113901;28;970;-60
2023/12/27 00:47:00;;;;;;;;;;;;;;;1.83;94.58;95680.00;5114098;28;1291;-59
2023/12/27 00:49:25;;;;;;;;;;;;;;;2.02;93.73;95677.06;5113884;28;1087;-60
2023/12/27 00:51:51;;;;;;;;;;;;;;;1.98;94.45;95686.97;5113979;28;1047;-59
2023/12/27 00:54:18;;;;;;;;;;;;;;;2.01;94.07;95689.44;5114040;28;1913;-60
2023/12/27 00:56:45;;;;;;;;;;;;;;;2.08;94.20;95697.78;5114208;28;953;-60
2023/12/27 00:59:11;;;;;;;;;;;;;;;2.17;93.53;95699.84;5114092;28;1153;-59
2023/12/27 01:01:37;;;;;;;;;;;;;;;2.09;93.03;95691.59;5113910;28;973;-59
2023/12/27 01:04:22;;;;;;;;;;;;;;;1.88;92.40;95684.06;5113634;28;1681;-60
2023/12/27 01:06:48;;;;;;;;;;;;;;;1.69;93.97;95684.34;5113928;28;995;-60
2023/12/27 01:09:14;;;;;;;;;;;;;;;1.83;93.50;95675.56;5113633;28;1056;-60
2023/12/27 01:11:40;;;;;;;;;;;;;;;1.90;94.09;95674.25;5114008;28;981;-60
2023/12/27 01:14:06;;;;;;;;;;;;;;;1.88;94.41;95667.41;5113874;28;1910;-60
2023/12/27 01:16:32;;;;;;;;;;;;;;;1.81;94.32;95681.91;5113332;28;1136;-60
2023/12/27 01:18:58;;;;;;;;;;;;;;;1.71;94.65;95671.91;5113820;28;1020;-60
2023/12/27 01:21:24;;;;;;;;;;;;;;;1.72;95.83;95681.50;5113787;28;1052;-61
2023/12/27 01:23:50;;;;;;;;;;;;;;;1.91;96.60;95696.19;5113567;28;970;-60
2023/12/27 01:26:16;;;;;;;;;;;;;;;2.14;96.07;95693.00;5113474;28;1024;-59
2023/12/27 01:28:42;;;;;;;;;;;;;;;1.80;92.91;95701.28;5113544;28;1115;-60
2023/12/27 01:31:08;;;;;;;;;;;;;;;1.53;94.28;95699.41;5113420;28;1080;-61
2023/12/27 01:33:34;;;;;;;;;;;;;;;1.62;95.22;95708.53;5113574;28;1910;-61
2023/12/27 01:36:09;;;;;;;;;;;;;;;1.74;94.87;95711.25;5113795;28;1065;-60
2023/12/27 01:38:35;;;;;;;;;;;;;;;1.81;94.39;95708.28;5113867;28;1071;-60
2023/12/27 01:41:01;;;;;;;;;;;;;;;1.85;94.51;95710.59;5113525;28;1045;-60
2023/12/27 01:43:27;;;;;;;;;;;;;;;1.91;93.58;95717.28;5113637;28;1016;-61
2023/12/27 01:45:53;;;;;;;;;;;;;;;1.89;93.21;95713.91;5113579;28;973;-60
2023/12/27 01:48:22;;;;;;;;;;;;;;;1.84;93.35;95719.47;5113464;28;969;-60
2023/12/27 01:50:49;;;;;;;;;;;;;;;1.76;93.78;95719.06;5113636;28;1013;-61
2023/12/27 01:53:16;;;;;;;;;;;;;;;1.85;93.96;95709.78;5113189;28;1909;-61
2023/12/27 01:55:43;;;;;;;;;;;;;;;2.03;94.38;95718.31;5113860;28;1036;-60
2023/12/27 01:58:12;;;;;;;;;;;;;;;2.04;94.06;95720.03;5117247;28;1100;-60
2023/12/27 02:00:40;;;;;;;;;;;;;;;1.91;93.69;95720.78;5117422;28;1040;-59
2023/12/27 02:03:07;;;;;;;;;;;;;;;1.49;94.10;95725.06;5117353;28;1209;-60
2023/12/27 02:05:34;;;;;;;;;;;;;;;1.51;95.53;95725.00;5117026;28;1040;-61
2023/12/27 02:08:00;;;;;;;;;;;;;;;1.76;94.35;95721.72;5117153;28;1048;-61
2023/12/27 02:10:27;;;;;;;;;;;;;;;1.75;94.61;95718.25;5116999;28;1056;-60
2023/12/27 02:12:54;;;;;;;;;;;;;;;1.54;95.11;95720.38;5116959;28;1032;-61
2023/12/27 02:15:20;;;;;;;;;;;;;;;1.29;94.54;95722.78;5116826;28;1910;-63
2023/12/27 02:17:47;;;;;;;;;;;;;;;1.27;94.22;95720.25;5116900;28;1104;-61
2023/12/27 02:20:13;;;;;;;;;;;;;;;1.36;95.13;95718.84;5117018;28;977;-61
2023/12/27 02:22:41;;;;;;;;;;;;;;;1.50;94.50;95713.63;5116896;28;1036;-61
2023/12/27 02:25:07;;;;;;;;;;;;;;;1.47;95.52;95716.41;5116813;28;988;-60
2023/12/27 02:27:33;;;;;;;;;;;;;;;1.35;95.98;95723.28;5116580;28;1122;-60
2023/12/27 02:29:59;;;;;;;;;;;;;;;1.24;96.73;95722.22;5116986;28;1056;-61
2023/12/27 02:32:26;;;;;;;;;;;;;;;1.45;95.87;95738.53;5116600;28;1048;-61
2023/12/27 02:34:52;;;;;;;;;;;;;;;1.57;95.02;95756.25;5116808;28;1990;-61
2023/12/27 02:37:18;;;;;;;;;;;;;;;1.53;95.19;95755.56;5116784;28;972;-61
2023/12/27 02:39:44;;;;;;;;;;;;;;;1.59;95.40;95751.72;5116779;28;965;-61
2023/12/27 02:42:10;;;;;;;;;;;;;;;1.70;94.62;95756.38;5116577;28;1032;-61
2023/12/27 02:44:35;;;;;;;;;;;;;;;1.62;94.04;95748.91;5116669;28;1048;-61
2023/12/27 02:47:02;;;;;;;;;;;;;;;1.59;93.42;95746.47;5116678;28;973;-61
2023/12/27 02:49:27;;;;;;;;;;;;;;;1.33;92.93;95751.50;5116511;28;969;-60
2023/12/27 02:51:53;;;;;;;;;;;;;;;1.23;94.09;95747.69;5116387;28;973;-61
2023/12/27 02:54:19;;;;;;;;;;;;;;;1.21;95.41;95736.41;5116312;28;1994;-61
2023/12/27 02:56:45;;;;;;;;;;;;;;;1.26;95.73;95744.91;5116377;28;1035;-61
2023/12/27 02:59:11;;;;;;;;;;;;;;;1.40;95.73;95735.31;5116320;28;1211;-61
2023/12/27 03:01:37;;;;;;;;;;;;;;;1.62;95.61;95730.47;5116385;28;1048;-60
2023/12/27 03:04:03;;;;;;;;;;;;;;;1.41;95.62;95748.41;5116308;28;1212;-61
2023/12/27 03:06:29;;;;;;;;;;;;;;;1.18;95.58;95728.69;5115505;28;1044;-62
2023/12/27 03:08:55;;;;;;;;;;;;;;;1.38;96.71;95732.78;5115922;28;1032;-60
2023/12/27 03:11:21;;;;;;;;;;;;;;;1.54;95.40;95738.00;5115689;28;1114;-61
2023/12/27 03:13:47;;;;;;;;;;;;;;;1.28;92.69;95740.38;5115780;28;2008;-61
2023/12/27 03:16:13;;;;;;;;;;;;;;;1.15;93.80;95736.75;5115582;28;1214;-61
2023/12/27 03:18:39;;;;;;;;;;;;;;;1.17;95.53;95740.16;5097795;28;1022;-61
2023/12/27 03:21:05;;;;;;;;;;;;;;;1.37;95.37;95746.91;5115989;28;1071;-60
2023/12/27 03:23:31;;;;;;;;;;;;;;;1.48;94.58;95743.63;5115548;28;1122;-61
2023/12/27 03:25:57;;;;;;;;;;;;;;;1.43;94.66;95746.53;5115543;28;1041;-60
2023/12/27 03:28:23;;;;;;;;;;;;;;;1.48;94.65;95740.97;5115749;28;1060;-60
2023/12/27 03:30:49;;;;;;;;;;;;;;;1.52;94.11;95740.72;5115900;28;1056;-61
2023/12/27 03:33:15;;;;;;;;;;;;;;;1.36;93.59;95748.66;5115234;28;1996;-60
2023/12/27 03:35:40;;;;;;;;;;;;;;;1.21;92.79;95741.66;5115462;28;1107;-60
2023/12/27 03:38:06;;;;;;;;;;;;;;;1.01;94.20;95744.63;5115656;28;973;-60
2023/12/27 03:40:32;;;;;;;;;;;;;;;0.81;95.77;95748.41;5115264;28;986;-60
2023/12/27 03:42:58;;;;;;;;;;;;;;;0.78;97.19;95754.69;5115203;28;977;-60
2023/12/27 03:45:24;;;;;;;;;;;;;;;1.13;97.38;95746.53;5115311;28;1004;-61
2023/12/27 03:47:50;;;;;;;;;;;;;;;1.39;96.98;95758.19;5115240;28;1083;-61
2023/12/27 03:50:16;;;;;;;;;;;;;;;1.38;95.77;95758.28;5114985;28;1061;-59
2023/12/27 03:52:43;;;;;;;;;;;;;;;1.37;95.05;95760.09;5115178;28;1059;-59
2023/12/27 03:55:09;;;;;;;;;;;;;;;1.30;94.13;95772.75;5114926;28;1984;-60
2023/12/27 03:57:35;;;;;;;;;;;;;;;1.04;94.01;95771.63;5114916;28;897;-57
2023/12/27 04:00:01;;;;;;;;;;;;;;;1.05;94.72;95770.69;5114902;28;1110;-59
2023/12/27 04:02:27;;;;;;;;;;;;;;;1.12;95.13;95764.16;5114789;28;1092;-59
2023/12/27 04:04:53;;;;;;;;;;;;;;;1.12;94.72;95772.03;5114746;28;1166;-60
2023/12/27 04:07:18;;;;;;;;;;;;;;;1.01;94.73;95778.88;5114754;28;1040;-60
2023/12/27 04:09:44;;;;;;;;;;;;;;;0.85;94.07;95768.34;5114782;28;995;-59
2023/12/27 04:12:10;;;;;;;;;;;;;;;0.58;97.38;95780.31;5114541;28;1029;-59
2023/12/27 04:14:36;;;;;;;;;;;;;;;0.60;99.76;95782.03;5114129;28;1905;-61
2023/12/27 04:17:02;;;;;;;;;;;;;;;0.73;99.77;95777.78;5114583;28;1032;-60
2023/12/27 04:19:28;;;;;;;;;;;;;;;0.60;94.13;95776.78;5095790;28;982;-61
2023/12/27 04:21:54;;;;;;;;;;;;;;;0.74;96.72;95784.72;5114826;28;1045;-58
2023/12/27 04:24:20;;;;;;;;;;;;;;;1.00;95.93;95799.06;5096553;28;967;-58
2023/12/27 04:26:46;;;;;;;;;;;;;;;1.07;96.03;95807.47;5114270;28;1056;-58
2023/12/27 04:29:12;;;;;;;;;;;;;;;1.16;95.84;95801.69;5114476;28;1041;-58
2023/12/27 04:31:38;;;;;;;;;;;;;;;1.08;94.85;95809.16;5114240;28;1048;-58
2023/12/27 04:34:05;;;;;;;;;;;;;;;0.90;93.50;95805.81;5114492;28;1930;-59
2023/12/27 04:36:34;;;;;;;;;;;;;;;1.00;95.00;95799.06;5113842;28;1008;-58
2023/12/27 04:39:00;;;;;;;;;;;;;;;0.70;95.59;95796.38;5096177;28;968;-58
2023/12/27 04:41:26;;;;;;;;;;;;;;;0.57;98.08;95802.31;5114324;28;999;-58
2023/12/27 04:43:53;;;;;;;;;;;;;;;0.57;99.89;95802.31;5114332;28;1000;-58
2023/12/27 04:46:19;;;;;;;;;;;;;;;0.77;100.00;95800.38;5095926;28;1057;-57
2023/12/27 04:48:45;;;;;;;;;;;;;;;0.72;98.41;95812.94;5114020;28;1032;-58
2023/12/27 04:51:12;;;;;;;;;;;;;;;0.98;96.83;95803.56;5114141;28;978;-57
2023/12/27 04:53:38;;;;;;;;;;;;;;;0.99;95.99;95813.19;5113905;28;1910;-57
2023/12/27 04:56:04;;;;;;;;;;;;;;;0.77;96.15;95829.31;5113873;28;992;-57
2023/12/27 04:58:35;;;;;;;;;;;;;;;0.45;93.79;95836.34;5114090;28;1051;-57
2023/12/27 05:01:07;;;;;;;;;;;;;;;0.52;95.58;95832.47;5113961;28;1032;-57
2023/12/27 05:03:35;;;;;;;;;;;;;;;0.73;96.32;95822.53;5113988;28;1134;-58
2023/12/27 05:06:01;;;;;;;;;;;;;;;0.86;96.00;95830.59;5113909;28;1043;-58
2023/12/27 05:08:28;;;;;;;;;;;;;;;0.97;95.62;95839.59;5113654;28;1064;-57
2023/12/27 05:10:54;;;;;;;;;;;;;;;1.08;95.18;95835.50;5114015;28;977;-58
2023/12/27 05:13:20;;;;;;;;;;;;;;;0.94;94.30;95831.84;5095463;28;2006;-58
2023/12/27 05:15:46;;;;;;;;;;;;;;;0.63;94.00;95834.50;5113477;28;1068;-58
2023/12/27 05:18:12;;;;;;;;;;;;;;;0.72;96.19;95828.72;5113583;28;1048;-62
2023/12/27 05:20:38;;;;;;;;;;;;;;;0.71;96.29;95830.50;5113666;28;994;-61
2023/12/27 05:23:04;;;;;;;;;;;;;;;0.77;96.90;95831.97;5095524;28;1083;-61
2023/12/27 05:25:30;;;;;;;;;;;;;;;0.57;94.76;95836.53;5113472;28;1019;-61
2023/12/27 05:27:56;;;;;;;;;;;;;;;0.56;93.49;95834.81;5113848;28;1056;-61
2023/12/27 05:30:22;;;;;;;;;;;;;;;0.71;95.47;95838.41;5115508;28;990;-61
2023/12/27 05:32:48;;;;;;;;;;;;;;;0.74;95.38;95837.38;5099958;28;1020;-59
2023/12/27 05:35:14;;;;;;;;;;;;;;;0.84;95.16;95832.47;5117660;28;1918;-58
2023/12/27 05:37:40;;;;;;;;;;;;;;;0.74;94.24;95840.00;5117568;28;1111;-59
2023/12/27 05:40:06;;;;;;;;;;;;;;;0.49;93.88;95843.13;5117613;28;1032;-59
2023/12/27 05:42:32;;;;;;;;;;;;;;;0.20;97.12;95845.53;5117539;28;1040;-59
2023/12/27 05:44:58;;;;;;;;;;;;;;;0.24;97.75;95867.28;5117577;28;1021;-59
2023/12/27 05:47:24;;;;;;;;;;;;;;;0.32;97.60;95862.47;5117783;28;993;-58
2023/12/27 05:49:50;;;;;;;;;;;;;;;0.47;97.10;95858.16;5117551;28;1313;-58
2023/12/27 05:52:16;;;;;;;;;;;;;;;0.67;96.06;95860.56;5117660;28;996;-59
2023/12/27 05:54:42;;;;;;;;;;;;;;;0.76;95.46;95861.88;5117305;28;1992;-59
2023/12/27 05:57:08;;;;;;;;;;;;;;;0.60;92.73;95861.00;5117573;28;974;-59
2023/12/27 05:59:34;;;;;;;;;;;;;;;0.27;94.85;95861.88;5117195;28;910;-58
2023/12/27 06:02:00;;;;;;;;;;;;;;;0.49;96.33;95867.66;5117424;28;1060;-58
2023/12/27 06:04:30;;;;;;;;;;;;;;;0.61;96.44;95860.03;5117175;28;1166;-58
2023/12/27 06:06:56;;;;;;;;;;;;;;;0.82;95.28;95866.78;5117092;28;1032;-58
2023/12/27 06:09:22;;;;;;;;;;;;;;;0.62;94.55;95885.44;5098943;28;1017;-59
2023/12/27 06:11:48;;;;;;;;;;;;;;;0.28;94.28;95893.31;5117173;28;1076;-58
2023/12/27 06:14:14;;;;;;;;;;;;;;;0.43;97.60;95891.69;5116794;28;1917;-59
2023/12/27 06:16:40;;;;;;;;;;;;;;;0.62;97.30;95883.66;5117593;28;970;-58
2023/12/27 06:19:06;;;;;;;;;;;;;;;0.79;95.93;95890.63;5117220;28;1000;-58
2023/12/27 06:21:32;;;;;;;;;;;;;;;0.86;95.65;95888.53;5116754;28;1102;-60
2023/12/27 06:23:58;;;;;;;;;;;;;;;0.60;93.97;95885.50;5116625;28;1218;-59
2023/12/27 06:26:24;;;;;;;;;;;;;;;0.70;95.48;95883.22;5117019;28;1290;-60
2023/12/27 06:28:50;;;;;;;;;;;;;;;0.73;94.98;95890.97;5116818;28;1029;-60
2023/12/27 06:31:16;;;;;;;;;;;;;;;0.73;95.21;95893.59;5116911;28;1063;-60
2023/12/27 06:33:42;;;;;;;;;;;;;;;0.93;95.30;95887.25;5116581;28;1886;-59
2023/12/27 06:36:08;;;;;;;;;;;;;;;0.93;94.91;95901.28;5116662;28;1013;-60
2023/12/27 06:38:34;;;;;;;;;;;;;;;1.26;92.76;95902.13;5116437;28;1040;-60
2023/12/27 06:41:00;;;;;;;;;;;;;;;3.46;83.74;95917.94;5116346;28;1044;-59
2023/12/27 06:43:26;;;;;;;;;;;;;;;5.51;73.86;95918.06;5116159;28;1059;-60
2023/12/27 06:45:52;;;;;;;;;;;;;;;6.11;64.90;95929.63;5116575;28;991;-60
2023/12/27 06:48:18;;;;;;;;;;;;;;;7.60;62.12;95928.69;5098355;28;968;-60
2023/12/27 06:50:44;;;;;;;;;;;;;;;9.22;57.11;95941.03;5116313;28;1108;-60
2023/12/27 06:53:10;;;;;;;;;;;;;;;10.20;53.57;95952.84;5098058;28;1091;-60
2023/12/27 06:55:36;;;;;;;;;;;;;;;10.88;50.83;95958.19;5116131;28;1897;-59
2023/12/27 06:58:03;;;;;;;;;;;;;;;11.19;50.28;95961.50;5116135;28;1028;-59
2023/12/27 07:00:29;;;;;;;;;;;;;;;11.25;50.12;95965.44;5116029;28;1111;-59
2023/12/27 07:02:55;;;;;;;;;;;;;;;11.81;48.36;95971.72;5116027;28;1220;-59
2023/12/27 07:05:21;;;;;;;;;;;;;;;12.27;47.31;95965.41;5115955;28;1115;-60
2023/12/27 07:07:47;;;;;;;;;;;;;;;12.89;46.27;95970.00;5115974;28;988;-60
2023/12/27 07:10:13;;;;;;;;;;;;;;;13.57;44.30;95982.75;5115794;28;1032;-59
2023/12/27 07:12:39;;;;;;;;;;;;;;;13.58;44.80;96000.56;5115985;28;1087;-60
2023/12/27 07:15:07;;;;;;;;;;;;;;;13.38;44.75;96004.47;5115845;28;1993;-59
2023/12/27 07:17:33;;;;;;;;;;;;;;;14.19;43.34;96012.09;5115899;28;981;-60
2023/12/27 07:20:00;;;;;;;;;;;;;;;14.14;43.00;96011.75;5115667;28;1025;-59
2023/12/27 07:22:26;;;;;;;;;;;;;;;13.76;42.90;96010.41;5115820;28;936;-58
2023/12/27 07:24:52;;;;;;;;;;;;;;;13.24;44.84;96014.75;5115874;28;987;-58
2023/12/27 07:27:18;;;;;;;;;;;;;;;12.61;45.75;96026.41;5115687;28;986;-60
2023/12/27 07:29:44;;;;;;;;;;;;;;;10.45;51.17;96012.97;5115862;28;973;-60
2023/12/27 07:32:11;;;;;;;;;;;;;;;8.51;58.58;95995.03;5115617;28;1004;-59
2023/12/27 07:34:37;;;;;;;;;;;;;;;6.97;65.09;95992.19;5115474;28;1983;-59
2023/12/27 07:37:03;;;;;;;;;;;;;;;5.78;70.77;95973.56;5115354;28;999;-59
2023/12/27 07:39:32;;;;;;;;;;;;;;;5.04;75.77;95985.94;5115257;28;1024;-60
2023/12/27 07:41:59;;;;;;;;;;;;;;;4.44;79.40;95984.72;5115524;28;1061;-60
2023/12/27 07:44:26;;;;;;;;;;;;;;;4.30;81.31;95999.72;5115481;28;1037;-59
2023/12/27 07:46:52;;;;;;;;;;;;;;;4.54;80.60;96008.78;5115538;28;989;-60
2023/12/27 07:49:18;;;;;;;;;;;;;;;4.68;81.32;96009.53;5115130;28;1040;-59
2023/12/27 07:51:44;;;;;;;;;;;;;;;4.58;82.05;95999.69;5115134;28;985;-59
2023/12/27 07:54:10;;;;;;;;;;;;;;;4.53;82.94;96002.63;5114100;28;1910;-60
2023/12/27 07:56:37;;;;;;;;;;;;;;;4.64;82.77;96000.09;5097195;28;999;-60
2023/12/27 07:59:04;;;;;;;;;;;;;;;4.74;83.15;96008.28;5114921;28;909;-59
2023/12/27 08:01:31;;;;;;;;;;;;;;;4.87;81.91;96008.28;5115193;28;1061;-59
2023/12/27 08:03:58;;;;;;;;;;;;;;;4.99;81.77;95998.66;5114962;28;1169;-59
2023/12/27 08:06:24;;;;;;;;;;;;;;;5.08;80.87;96003.31;5114822;28;952;-60
2023/12/27 08:08:50;;;;;;;;;;;;;;;5.05;83.11;96012.34;5114803;28;1086;-58
2023/12/27 08:11:16;;;;;;;;;;;;;;;4.78;86.02;96020.38;5114909;28;1020;-59
2023/12/27 08:13:42;;;;;;;;;;;;;;;4.66;86.41;96027.34;5114639;28;1894;-59
2023/12/27 08:16:08;;;;;;;;;;;;;;;4.64;87.83;96023.09;5113697;28;1088;-58
2023/12/27 08:18:35;;;;;;;;;;;;;;;4.69;87.71;96031.59;5114542;28;1040;-58
2023/12/27 08:21:01;;;;;;;;;;;;;;;4.68;87.57;96032.53;5114507;28;1045;-59
2023/12/27 08:23:27;;;;;;;;;;;;;;;4.86;86.34;96023.34;5114704;28;1031;-59
2023/12/27 08:25:53;;;;;;;;;;;;;;;4.83;87.55;96020.06;5114462;28;1087;-59
2023/12/27 08:28:19;;;;;;;;;;;;;;;4.89;87.49;96016.97;5114407;28;1103;-59
2023/12/27 08:30:46;;;;;;;;;;;;;;;4.99;88.13;96022.50;5114356;28;1036;-58
2023/12/27 08:33:12;;;;;;;;;;;;;;;4.99;87.96;96014.53;5114548;28;1022;-58
2023/12/27 08:35:38;;;;;;;;;;;;;;;4.93;89.79;96020.28;5114257;28;1905;-59
2023/12/27 08:38:13;;;;;;;;;;;;;;;4.95;89.98;96015.72;5114528;28;992;-59
2023/12/27 08:40:39;;;;;;;;;;;;;;;4.86;90.80;96023.34;5096376;28;1034;-58
2023/12/27 08:43:05;;;;;;;;;;;;;;;4.89;91.59;96019.63;5114366;28;1011;-59
2023/12/27 08:45:31;;;;;;;;;;;;;;;5.02;90.43;96019.66;5114184;28;1004;-59
2023/12/27 08:47:57;;;;;;;;;;;;;;;5.21;89.04;96020.06;5114010;28;1036;-58
2023/12/27 08:50:23;;;;;;;;;;;;;;;5.38;88.07;96026.84;5114001;28;1033;-58
2023/12/27 08:52:49;;;;;;;;;;;;;;;5.75;87.00;96024.22;5096026;28;1033;-59
2023/12/27 08:55:15;;;;;;;;;;;;;;;6.03;85.60;96020.47;5113810;28;1984;-60
2023/12/27 08:57:41;;;;;;;;;;;;;;;6.32;84.40;96033.41;5114082;28;1023;-59
2023/12/27 09:00:10;;;;;;;;;;;;;;;6.10;85.40;96031.47;5114190;28;957;-59
2023/12/27 09:02:37;;;;;;;;;;;;;;;6.24;85.30;96038.41;5113885;28;1061;-59
2023/12/27 09:05:04;;;;;;;;;;;;;;;6.47;83.57;96054.47;5113722;28;1161;-60
2023/12/27 09:07:31;;;;;;;;;;;;;;;6.66;83.03;96054.81;5113724;28;1103;-60
2023/12/27 09:09:57;;;;;;;;;;;;;;;6.91;81.19;96058.28;5113861;28;989;-59
2023/12/27 09:12:24;;;;;;;;;;;;;;;7.04;80.77;96053.72;5113895;28;1027;-61
2023/12/27 09:14:50;;;;;;;;;;;;;;;7.27;79.89;96053.78;5113589;28;1991;-60
2023/12/27 09:17:18;;;;;;;;;;;;;;;7.39;78.87;96047.47;5113585;28;1081;-60
2023/12/27 09:19:44;;;;;;;;;;;;;;;7.83;77.02;96053.78;5113873;28;1032;-60
2023/12/27 09:22:10;;;;;;;;;;;;;;;8.40;74.48;96054.50;5095561;28;1032;-59
2023/12/27 09:24:36;;;;;;;;;;;;;;;8.76;72.76;96044.47;5095870;28;1114;-59
2023/12/27 09:27:03;;;;;;;;;;;;;;;9.14;71.25;96027.94;5113782;28;1052;-58
2023/12/27 09:29:30;;;;;;;;;;;;;;;9.23;71.47;96020.94;5113689;28;961;-59
2023/12/27 09:31:56;;;;;;;;;;;;;;;9.59;70.38;96010.75;5113511;28;1306;-58
2023/12/27 09:34:22;;;;;;;;;;;;;;;9.89;69.26;96009.03;5113721;28;2019;-58
2023/12/27 09:36:48;;;;;;;;;;;;;;;10.27;68.59;96005.59;5113916;28;961;-58
2023/12/27 09:39:14;;;;;;;;;;;;;;;10.12;68.22;95997.13;5113700;28;962;-58
2023/12/27 09:41:41;;;;;;;;;;;;;;;10.36;67.53;96001.28;5113696;28;961;-59
2023/12/27 09:44:07;;;;;;;;;;;;;;;10.35;68.39;96003.09;5113741;28;1023;-58
2023/12/27 09:46:35;;;;;;;;;;;;;;;10.48;67.83;95997.47;5113665;28;964;-58
2023/12/27 09:49:01;;;;;;;;;;;;;;;10.43;67.16;95993.53;5113463;28;1124;-58
2023/12/27 09:51:28;;;;;;;;;;;;;;;10.42;68.48;95991.88;5113549;28;1055;-58
2023/12/27 09:53:54;;;;;;;;;;;;;;;10.46;67.89;95991.44;5113359;28;1903;-58
2023/12/27 09:56:21;;;;;;;;;;;;;;;10.38;67.55;95985.94;5113605;28;1030;-59
2023/12/27 09:58:53;;;;;;;;;;;;;;;10.74;67.50;95981.72;5113896;28;1053;-58
2023/12/27 10:01:22;;;;;;;;;;;;;;;10.69;66.69;95977.78;5113170;28;1108;-59
2023/12/27 10:03:52;;;;;;;;;;;;;;;10.88;66.42;95971.56;5113526;28;1169;-58
2023/12/27 10:06:26;;;;;;;;;;;;;;;11.42;64.88;95971.84;5113473;28;1048;-58
2023/12/27 10:08:52;;;;;;;;;;;;;;;11.66;63.13;95976.72;5113554;28;1035;-58
2023/12/27 10:11:20;;;;;;;;;;;;;;;11.87;62.51;95961.22;5113244;28;1008;-58
2023/12/27 10:13:47;;;;;;;;;;;;;;;12.16;61.86;95965.63;5113121;28;1906;-58
2023/12/27 10:16:13;;;;;;;;;;;;;;;12.25;60.47;95970.06;5113069;28;1245;-57
2023/12/27 10:18:39;;;;;;;;;;;;;;;12.54;61.18;95957.44;5116840;28;1020;-58
2023/12/27 10:21:05;;;;;;;;;;;;;;;12.88;59.50;95962.94;5117169;28;1068;-58
2023/12/27 10:23:34;;;;;;;;;;;;;;;13.17;59.52;95959.97;5117112;28;922;-57
2023/12/27 10:26:00;;;;;;;;;;;;;;;13.26;58.73;95955.47;5116840;28;1099;-58
2023/12/27 10:28:26;;;;;;;;;;;;;;;13.44;58.25;95948.25;5116950;28;1029;-57
2023/12/27 10:30:53;;;;;;;;;;;;;;;13.58;57.86;95951.34;5117056;28;1036;-57
2023/12/27 10:33:20;;;;;;;;;;;;;;;13.67;57.93;95947.69;5116809;28;1120;-57
2023/12/27 10:35:47;;;;;;;;;;;;;;;13.81;57.63;95940.84;5116575;28;1909;-57
2023/12/27 10:38:13;;;;;;;;;;;;;;;13.89;57.30;95940.91;5116872;28;1051;-58
2023/12/27 10:40:40;;;;;;;;;;;;;;;13.96;57.08;95933.00;5116648;28;981;-57
2023/12/27 10:43:07;;;;;;;;;;;;;;;14.07;57.23;95927.34;5116519;28;1044;-58
2023/12/27 10:45:33;;;;;;;;;;;;;;;14.16;57.33;95915.59;5116774;28;1278;-57
2023/12/27 10:48:00;;;;;;;;;;;;;;;14.22;57.23;95906.03;5098669;28;973;-58
2023/12/27 10:50:27;;;;;;;;;;;;;;;14.48;57.22;95899.69;5116608;28;1063;-58
2023/12/27 10:53:03;;;;;;;;;;;;;;;14.62;57.11;95902.56;5116488;28;1031;-58
2023/12/27 10:55:30;;;;;;;;;;;;;;;14.91;56.70;95900.38;5116394;28;1984;-58
2023/12/27 10:57:58;;;;;;;;;;;;;;;15.10;56.61;95891.09;5116537;28;965;-58
2023/12/27 11:00:25;;;;;;;;;;;;;;;15.27;55.00;95898.16;5116384;28;981;-58
2023/12/27 11:02:51;;;;;;;;;;;;;;;15.48;55.37;95900.28;5116178;28;1260;-57
2023/12/27 11:05:27;;;;;;;;;;;;;;;15.61;54.73;95905.97;5116325;28;1048;-57
2023/12/27 11:07:54;;;;;;;;;;;;;;;15.79;54.17;95903.03;5116124;28;1029;-57
2023/12/27 11:10:21;;;;;;;;;;;;;;;16.01;54.47;95892.47;5115970;28;1008;-57
2023/12/27 11:12:48;;;;;;;;;;;;;;;16.00;54.24;95898.91;5116276;28;1051;-57
2023/12/27 11:15:14;;;;;;;;;;;;;;;16.04;54.50;95894.84;5115576;28;1987;-57
2023/12/27 11:17:41;;;;;;;;;;;;;;;15.87;53.96;95895.94;5116523;28;977;-57
2023/12/27 11:20:08;;;;;;;;;;;;;;;15.75;53.02;95880.16;5115885;28;974;-57
2023/12/27 11:22:34;;;;;;;;;;;;;;;15.79;53.56;95881.47;5116011;28;1019;-58
2023/12/27 11:25:01;;;;;;;;;;;;;;;15.71;52.67;95880.66;5115704;28;1008;-58
2023/12/27 11:27:27;;;;;;;;;;;;;;;15.48;52.70;95851.78;5115510;28;976;-58
2023/12/27 11:29:53;;;;;;;;;;;;;;;15.73;52.42;95890.28;5097484;28;1123;-58
2023/12/27 11:32:20;;;;;;;;;;;;;;;15.65;52.79;95887.59;5115559;28;960;-58
2023/12/27 11:34:46;;;;;;;;;;;;;;;15.68;52.82;95892.63;5115394;28;1913;-58
2023/12/27 11:37:14;;;;;;;;;;;;;;;15.51;53.17;95889.13;5115416;28;966;-57
2023/12/27 11:39:40;;;;;;;;;;;;;;;15.62;53.87;95888.75;5115658;28;1052;-57
2023/12/27 11:42:06;;;;;;;;;;;;;;;15.59;52.89;95897.22;5115361;28;1065;-58
2023/12/27 11:44:39;;;;;;;;;;;;;;;15.61;52.29;95899.72;5115382;28;1051;-58
2023/12/27 11:47:05;;;;;;;;;;;;;;;15.68;53.66;95895.31;5115277;28;1087;-58
2023/12/27 11:49:31;;;;;;;;;;;;;;;15.74;52.38;95901.88;5115135;28;1035;-58
2023/12/27 11:51:59;;;;;;;;;;;;;;;15.74;51.88;95900.03;5097362;28;970;-57
2023/12/27 11:54:26;;;;;;;;;;;;;;;15.66;51.56;95901.91;5114927;28;1910;-57
2023/12/27 11:56:52;;;;;;;;;;;;;;;15.52;51.58;95909.69;5114992;28;1040;-57
2023/12/27 11:59:19;;;;;;;;;;;;;;;15.45;52.21;95907.88;5115345;28;1003;-58
2023/12/27 12:01:45;;;;;;;;;;;;;;;15.41;51.35;95900.13;5115136;28;957;-58
2023/12/27 12:04:30;;;;;;;;;;;;;;;15.41;53.29;95897.44;5115031;28;1158;-58
2023/12/27 12:06:56;;;;;;;;;;;;;;;15.37;52.05;95903.34;5114884;28;1047;-57
2023/12/27 12:09:28;;;;;;;;;;;;;;;15.31;52.26;95904.88;5114712;28;1021;-57
2023/12/27 12:11:54;;;;;;;;;;;;;;;15.28;52.60;95907.91;5115044;28;957;-58
2023/12/27 12:14:21;;;;;;;;;;;;;;;15.22;52.74;95906.72;5115672;27;1934;-58
2023/12/27 12:16:47;;;;;;;;;;;;;;;15.18;51.99;95909.97;5135256;27;1079;-58
2023/12/27 12:19:16;;;;;;;;;;;;;;;15.07;52.71;95907.63;5135242;27;974;-58
2023/12/27 12:21:42;;;;;;;;;;;;;;;14.99;53.97;95911.16;5135011;27;1317;-57
2023/12/27 12:24:08;;;;;;;;;;;;;;;14.96;54.30;95912.31;5135345;27;1044;-57
2023/12/27 12:26:35;;;;;;;;;;;;;;;14.96;55.98;95900.72;5135076;27;1036;-57
2023/12/27 12:29:02;;;;;;;;;;;;;;;14.88;55.58;95898.03;5116829;27;1072;-57
2023/12/27 12:31:30;;;;;;;;;;;;;;;14.95;55.90;95905.28;5135101;27;1036;-58
2023/12/27 12:33:56;;;;;;;;;;;;;;;14.96;55.47;95893.47;5134731;27;1917;-57
2023/12/27 12:36:23;;;;;;;;;;;;;;;14.81;56.49;95900.56;5134948;27;970;-58
2023/12/27 12:38:49;;;;;;;;;;;;;;;14.76;56.35;95895.69;5134993;27;1043;-57
2023/12/27 12:41:16;;;;;;;;;;;;;;;14.71;56.37;95905.28;5116007;27;1040;-56
2023/12/27 12:43:43;;;;;;;;;;;;;;;14.64;57.20;95902.41;5134990;27;973;-58
2023/12/27 12:46:11;;;;;;;;;;;;;;;14.58;56.70;95906.59;5116626;27;997;-57
2023/12/27 12:48:38;;;;;;;;;;;;;;;14.52;55.50;95912.63;5134578;27;977;-57
2023/12/27 12:51:25;;;;;;;;;;;;;;;14.49;56.12;95912.97;5134887;27;1036;-57
2023/12/27 12:53:51;;;;;;;;;;;;;;;14.36;56.38;95910.78;5134699;27;2006;-57
2023/12/27 12:56:18;;;;;;;;;;;;;;;14.34;55.87;95914.63;5134519;27;961;-57
2023/12/27 12:58:44;;;;;;;;;;;;;;;14.28;55.80;95915.28;5134627;27;972;-57
2023/12/27 13:04:31;;;;;;;;;;;;;;;14.15;56.67;95919.31;5119949;27;1220;-57
2023/12/27 13:06:58;;;;;;;;;;;;;;;14.03;57.31;95915.22;5113920;28;977;-57